sensor_id;sensor_type;location;lat;lon;timestamp;P1;durP1;ratioP1;P2;durP2;ratioP2
37169;SDS011;23062;13.952;100.608;2023-02-11T00:02:56;16.00;;;12.00;;
37169;SDS011;23062;13.952;100.608;2023-02-11T00:07:23;17.00;;;12.00;;
37169;SDS011;23062;13.952;100.608;2023-02-11T00:11:48;17.00;;;12.00;;
37169;SDS011;23062;13.952;100.608;2023-02-11T00:16:18;23.00;;;16.00;;
37169;SDS011;23062;13.952;100.608;2023-02-11T00:20:44;18.00;;;13.00;;
37169;SDS011;23062;13.952;100.608;2023-02-11T00:25:09;15.00;;;11.00;;
37169;SDS011;23062;13.952;100.608;2023-02-11T00:29:35;18.00;;;14.00;;
37169;SDS011;23062;13.952;100.608;2023-02-11T00:34:01;18.00;;;13.00;;
37169;SDS011;23062;13.952;100.608;2023-02-11T00:38:29;18.00;;;13.00;;
37169;SDS011;23062;13.952;100.608;2023-02-11T00:42:55;18.00;;;13.00;;
37169;SDS011;23062;13.952;100.608;2023-02-11T00:47:20;18.00;;;13.00;;
37169;SDS011;23062;13.952;100.608;2023-02-11T00:51:46;21.00;;;15.00;;
37169;SDS011;23062;13.952;100.608;2023-02-11T00:56:12;15.00;;;11.00;;
37169;SDS011;23062;13.952;100.608;2023-02-11T01:00:45;17.00;;;13.00;;
37169;SDS011;23062;13.952;100.608;2023-02-11T01:05:10;19.00;;;14.00;;
37169;SDS011;23062;13.952;100.608;2023-02-11T01:09:38;19.00;;;14.00;;
37169;SDS011;23062;13.952;100.608;2023-02-11T01:14:04;18.00;;;13.00;;
37169;SDS011;23062;13.952;100.608;2023-02-11T01:18:30;20.00;;;14.00;;
37169;SDS011;23062;13.952;100.608;2023-02-11T01:22:55;19.00;;;13.00;;
37169;SDS011;23062;13.952;100.608;2023-02-11T01:27:21;16.00;;;11.00;;
37169;SDS011;23062;13.952;100.608;2023-02-11T01:31:47;16.00;;;11.00;;
37169;SDS011;23062;13.952;100.608;2023-02-11T01:36:13;16.00;;;12.00;;
37169;SDS011;23062;13.952;100.608;2023-02-11T01:40:38;16.00;;;12.00;;
37169;SDS011;23062;13.952;100.608;2023-02-11T01:50:06;15.00;;;11.00;;
37169;SDS011;23062;13.952;100.608;2023-02-11T01:54:34;18.00;;;14.00;;
37169;SDS011;23062;13.952;100.608;2023-02-11T01:59:21;16.00;;;11.00;;
37169;SDS011;23062;13.952;100.608;2023-02-11T02:03:46;20.00;;;14.00;;
37169;SDS011;23062;13.952;100.608;2023-02-11T02:13:07;18.00;;;13.00;;
37169;SDS011;23062;13.952;100.608;2023-02-11T02:17:40;21.00;;;15.00;;
37169;SDS011;23062;13.952;100.608;2023-02-11T02:36:49;17.00;;;12.00;;
37169;SDS011;23062;13.952;100.608;2023-02-11T02:41:21;16.00;;;12.00;;
37169;SDS011;23062;13.952;100.608;2023-02-11T02:45:47;15.00;;;11.00;;
37169;SDS011;23062;13.952;100.608;2023-02-11T02:50:13;16.00;;;12.00;;
37169;SDS011;23062;13.952;100.608;2023-02-11T02:59:45;15.00;;;11.00;;
37169;SDS011;23062;13.952;100.608;2023-02-11T03:08:54;17.00;;;12.00;;
37169;SDS011;23062;13.952;100.608;2023-02-11T03:13:38;15.00;;;12.00;;
37169;SDS011;23062;13.952;100.608;2023-02-11T03:18:05;19.00;;;14.00;;
37169;SDS011;23062;13.952;100.608;2023-02-11T03:22:44;19.00;;;14.00;;
37169;SDS011;23062;13.952;100.608;2023-02-11T03:31:53;17.00;;;13.00;;
37169;SDS011;23062;13.952;100.608;2023-02-11T03:36:47;17.00;;;12.00;;
37169;SDS011;23062;13.952;100.608;2023-02-11T03:41:13;19.00;;;13.07;;
37169;SDS011;23062;13.952;100.608;2023-02-11T03:45:41;21.00;;;16.00;;
37169;SDS011;23062;13.952;100.608;2023-02-11T03:50:09;18.00;;;13.00;;
37169;SDS011;23062;13.952;100.608;2023-02-11T03:54:37;22.00;;;16.00;;
37169;SDS011;23062;13.952;100.608;2023-02-11T03:59:05;19.00;;;14.00;;
37169;SDS011;23062;13.952;100.608;2023-02-11T04:03:31;19.00;;;14.00;;
37169;SDS011;23062;13.952;100.608;2023-02-11T04:07:58;22.00;;;17.00;;
37169;SDS011;23062;13.952;100.608;2023-02-11T04:12:26;18.00;;;14.00;;
37169;SDS011;23062;13.952;100.608;2023-02-11T04:16:51;17.00;;;12.00;;
37169;SDS011;23062;13.952;100.608;2023-02-11T04:21:37;18.00;;;14.00;;
37169;SDS011;23062;13.952;100.608;2023-02-11T04:26:03;21.00;;;15.00;;
37169;SDS011;23062;13.952;100.608;2023-02-11T04:30:29;18.00;;;14.00;;
37169;SDS011;23062;13.952;100.608;2023-02-11T04:34:55;20.00;;;14.00;;
37169;SDS011;23062;13.952;100.608;2023-02-11T04:39:26;17.00;;;13.00;;
37169;SDS011;23062;13.952;100.608;2023-02-11T04:43:52;18.00;;;14.00;;
37169;SDS011;23062;13.952;100.608;2023-02-11T04:48:18;22.00;;;16.00;;
37169;SDS011;23062;13.952;100.608;2023-02-11T04:52:45;17.00;;;13.00;;
37169;SDS011;23062;13.952;100.608;2023-02-11T04:57:10;17.00;;;12.00;;
37169;SDS011;23062;13.952;100.608;2023-02-11T05:01:36;15.00;;;11.00;;
37169;SDS011;23062;13.952;100.608;2023-02-11T05:06:01;16.00;;;12.00;;
37169;SDS011;23062;13.952;100.608;2023-02-11T05:10:30;17.00;;;11.20;;
37169;SDS011;23062;13.952;100.608;2023-02-11T05:14:55;17.00;;;13.00;;
37169;SDS011;23062;13.952;100.608;2023-02-11T05:19:21;19.00;;;14.00;;
37169;SDS011;23062;13.952;100.608;2023-02-11T05:23:46;18.00;;;14.00;;
37169;SDS011;23062;13.952;100.608;2023-02-11T05:28:13;17.00;;;13.00;;
37169;SDS011;23062;13.952;100.608;2023-02-11T05:32:38;17.00;;;13.00;;
37169;SDS011;23062;13.952;100.608;2023-02-11T05:37:04;20.00;;;15.00;;
37169;SDS011;23062;13.952;100.608;2023-02-11T05:41:29;17.00;;;13.00;;
37169;SDS011;23062;13.952;100.608;2023-02-11T05:45:58;19.00;;;13.00;;
37169;SDS011;23062;13.952;100.608;2023-02-11T05:50:26;20.00;;;14.00;;
37169;SDS011;23062;13.952;100.608;2023-02-11T05:54:52;20.00;;;14.00;;
37169;SDS011;23062;13.952;100.608;2023-02-11T05:59:19;20.00;;;14.00;;
37169;SDS011;23062;13.952;100.608;2023-02-11T06:03:45;17.00;;;12.00;;
37169;SDS011;23062;13.952;100.608;2023-02-11T06:08:13;19.00;;;15.00;;
37169;SDS011;23062;13.952;100.608;2023-02-11T06:12:38;19.00;;;14.00;;
37169;SDS011;23062;13.952;100.608;2023-02-11T06:17:04;17.00;;;11.20;;
37169;SDS011;23062;13.952;100.608;2023-02-11T06:21:35;19.00;;;15.00;;
37169;SDS011;23062;13.952;100.608;2023-02-11T06:26:04;20.00;;;15.00;;
37169;SDS011;23062;13.952;100.608;2023-02-11T06:30:33;16.00;;;12.00;;
37169;SDS011;23062;13.952;100.608;2023-02-11T06:34:59;18.00;;;13.00;;
37169;SDS011;23062;13.952;100.608;2023-02-11T06:39:25;17.00;;;13.00;;
37169;SDS011;23062;13.952;100.608;2023-02-11T06:43:51;18.00;;;14.00;;
37169;SDS011;23062;13.952;100.608;2023-02-11T06:48:17;19.00;;;14.00;;
37169;SDS011;23062;13.952;100.608;2023-02-11T06:52:43;18.00;;;13.00;;
37169;SDS011;23062;13.952;100.608;2023-02-11T06:57:12;17.00;;;12.00;;
37169;SDS011;23062;13.952;100.608;2023-02-11T07:01:37;17.00;;;12.00;;
37169;SDS011;23062;13.952;100.608;2023-02-11T07:06:03;17.00;;;13.00;;
37169;SDS011;23062;13.952;100.608;2023-02-11T07:10:30;19.00;;;14.00;;
37169;SDS011;23062;13.952;100.608;2023-02-11T07:14:57;19.00;;;15.00;;
37169;SDS011;23062;13.952;100.608;2023-02-11T07:19:24;17.00;;;12.00;;
37169;SDS011;23062;13.952;100.608;2023-02-11T07:23:52;17.00;;;12.00;;
37169;SDS011;23062;13.952;100.608;2023-02-11T07:28:18;17.00;;;12.00;;
37169;SDS011;23062;13.952;100.608;2023-02-11T07:32:43;14.00;;;11.00;;
37169;SDS011;23062;13.952;100.608;2023-02-11T07:37:09;14.00;;;11.00;;
37169;SDS011;23062;13.952;100.608;2023-02-11T07:41:37;16.00;;;12.00;;
37169;SDS011;23062;13.952;100.608;2023-02-11T07:46:03;16.00;;;12.00;;
37169;SDS011;23062;13.952;100.608;2023-02-11T07:50:33;13.00;;;10.00;;
37169;SDS011;23062;13.952;100.608;2023-02-11T07:54:59;14.00;;;10.00;;
37169;SDS011;23062;13.952;100.608;2023-02-11T07:59:24;15.00;;;11.00;;
37169;SDS011;23062;13.952;100.608;2023-02-11T08:03:56;14.00;;;10.00;;
37169;SDS011;23062;13.952;100.608;2023-02-11T08:08:22;12.00;;;9.00;;
37169;SDS011;23062;13.952;100.608;2023-02-11T08:12:51;14.00;;;10.00;;
37169;SDS011;23062;13.952;100.608;2023-02-11T08:17:17;12.00;;;9.00;;
37169;SDS011;23062;13.952;100.608;2023-02-11T08:21:45;17.00;;;11.20;;
37169;SDS011;23062;13.952;100.608;2023-02-11T08:26:17;13.00;;;9.00;;
37169;SDS011;23062;13.952;100.608;2023-02-11T08:30:44;12.00;;;9.00;;
37169;SDS011;23062;13.952;100.608;2023-02-11T08:35:09;12.00;;;9.00;;
37169;SDS011;23062;13.952;100.608;2023-02-11T08:39:35;15.00;;;11.00;;
37169;SDS011;23062;13.952;100.608;2023-02-11T08:44:01;13.00;;;9.00;;
37169;SDS011;23062;13.952;100.608;2023-02-11T08:48:27;12.00;;;9.00;;
37169;SDS011;23062;13.952;100.608;2023-02-11T08:52:53;12.00;;;9.00;;
37169;SDS011;23062;13.952;100.608;2023-02-11T08:57:19;12.00;;;9.00;;
37169;SDS011;23062;13.952;100.608;2023-02-11T09:01:45;14.00;;;10.00;;
37169;SDS011;23062;13.952;100.608;2023-02-11T09:06:15;11.00;;;8.00;;
37169;SDS011;23062;13.952;100.608;2023-02-11T09:10:41;12.00;;;9.00;;
37169;SDS011;23062;13.952;100.608;2023-02-11T09:15:07;13.00;;;9.00;;
37169;SDS011;23062;13.952;100.608;2023-02-11T09:19:33;14.00;;;10.00;;
37169;SDS011;23062;13.952;100.608;2023-02-11T09:23:58;13.00;;;10.00;;
37169;SDS011;23062;13.952;100.608;2023-02-11T09:28:24;13.00;;;8.40;;
37169;SDS011;23062;13.952;100.608;2023-02-11T09:32:49;14.00;;;10.00;;
37169;SDS011;23062;13.952;100.608;2023-02-11T09:37:15;11.00;;;8.00;;
37169;SDS011;23062;13.952;100.608;2023-02-11T09:41:53;13.00;;;9.00;;
37169;SDS011;23062;13.952;100.608;2023-02-11T09:46:18;13.00;;;10.00;;
37169;SDS011;23062;13.952;100.608;2023-02-11T09:50:46;12.00;;;8.00;;
37169;SDS011;23062;13.952;100.608;2023-02-11T09:55:34;12.00;;;8.00;;
37169;SDS011;23062;13.952;100.608;2023-02-11T10:00:11;11.00;;;8.00;;
37169;SDS011;23062;13.952;100.608;2023-02-11T10:14:20;12.00;;;9.00;;
37169;SDS011;23062;13.952;100.608;2023-02-11T10:23:47;12.00;;;9.00;;
37169;SDS011;23062;13.952;100.608;2023-02-11T10:28:15;13.00;;;10.00;;
37169;SDS011;23062;13.952;100.608;2023-02-11T10:32:53;14.00;;;11.00;;
37169;SDS011;23062;13.952;100.608;2023-02-11T10:37:26;15.00;;;10.00;;
37169;SDS011;23062;13.952;100.608;2023-02-11T10:41:52;13.00;;;9.00;;
37169;SDS011;23062;13.952;100.608;2023-02-11T10:46:21;12.00;;;8.00;;
37169;SDS011;23062;13.952;100.608;2023-02-11T10:50:48;14.00;;;10.00;;
37169;SDS011;23062;13.952;100.608;2023-02-11T10:55:16;15.00;;;11.00;;
37169;SDS011;23062;13.952;100.608;2023-02-11T10:59:43;16.00;;;11.00;;
37169;SDS011;23062;13.952;100.608;2023-02-11T11:08:58;14.00;;;10.00;;
37169;SDS011;23062;13.952;100.608;2023-02-11T11:13:28;16.00;;;12.00;;
37169;SDS011;23062;13.952;100.608;2023-02-11T11:18:14;17.00;;;12.00;;
37169;SDS011;23062;13.952;100.608;2023-02-11T11:22:42;16.00;;;11.00;;
37169;SDS011;23062;13.952;100.608;2023-02-11T11:27:16;13.00;;;10.00;;
37169;SDS011;23062;13.952;100.608;2023-02-11T11:31:51;18.00;;;13.00;;
37169;SDS011;23062;13.952;100.608;2023-02-11T11:36:31;17.00;;;13.00;;
37169;SDS011;23062;13.952;100.608;2023-02-11T11:41:17;20.00;;;15.00;;
37169;SDS011;23062;13.952;100.608;2023-02-11T11:45:52;18.00;;;13.00;;
37169;SDS011;23062;13.952;100.608;2023-02-11T11:50:22;14.00;;;11.00;;
37169;SDS011;23062;13.952;100.608;2023-02-11T11:54:58;14.00;;;10.00;;
37169;SDS011;23062;13.952;100.608;2023-02-11T11:59:23;15.00;;;11.00;;
37169;SDS011;23062;13.952;100.608;2023-02-11T12:04:09;15.00;;;11.00;;
37169;SDS011;23062;13.952;100.608;2023-02-11T12:18:29;16.00;;;11.00;;
37169;SDS011;23062;13.952;100.608;2023-02-11T12:32:36;18.00;;;13.00;;
37169;SDS011;23062;13.952;100.608;2023-02-11T12:37:13;17.00;;;12.00;;
37169;SDS011;23062;13.952;100.608;2023-02-11T12:41:38;19.00;;;15.00;;
37169;SDS011;23062;13.952;100.608;2023-02-11T12:55:57;12.00;;;9.00;;
37169;SDS011;23062;13.952;100.608;2023-02-11T13:00:30;18.00;;;14.00;;
37169;SDS011;23062;13.952;100.608;2023-02-11T13:04:54;15.00;;;11.00;;
37169;SDS011;23062;13.952;100.608;2023-02-11T13:09:25;19.00;;;14.00;;
37169;SDS011;23062;13.952;100.608;2023-02-11T13:27:47;15.00;;;11.00;;
37169;SDS011;23062;13.952;100.608;2023-02-11T13:37:40;15.00;;;12.00;;
37169;SDS011;23062;13.952;100.608;2023-02-11T13:42:03;16.00;;;12.00;;
37169;SDS011;23062;13.952;100.608;2023-02-11T13:46:46;16.00;;;12.00;;
37169;SDS011;23062;13.952;100.608;2023-02-11T13:50:58;14.00;;;10.00;;
37169;SDS011;23062;13.952;100.608;2023-02-11T13:55:26;15.00;;;11.00;;
37169;SDS011;23062;13.952;100.608;2023-02-11T13:59:56;19.00;;;14.00;;
37169;SDS011;23062;13.952;100.608;2023-02-11T14:04:24;13.00;;;10.00;;
37169;SDS011;23062;13.952;100.608;2023-02-11T14:23:20;16.00;;;12.00;;
37169;SDS011;23062;13.952;100.608;2023-02-11T14:27:54;16.00;;;12.00;;
37169;SDS011;23062;13.952;100.608;2023-02-11T14:42:18;15.00;;;11.00;;
37169;SDS011;23062;13.952;100.608;2023-02-11T14:46:47;13.00;;;10.00;;
37169;SDS011;23062;13.952;100.608;2023-02-11T14:51:28;13.00;;;10.00;;
37169;SDS011;23062;13.952;100.608;2023-02-11T14:56:02;15.00;;;11.00;;
37169;SDS011;23062;13.952;100.608;2023-02-11T15:00:29;12.00;;;9.00;;
37169;SDS011;23062;13.952;100.608;2023-02-11T15:09:51;14.00;;;11.00;;
37169;SDS011;23062;13.952;100.608;2023-02-11T15:14:21;14.00;;;10.00;;
37169;SDS011;23062;13.952;100.608;2023-02-11T15:18:55;15.00;;;11.00;;
37169;SDS011;23062;13.952;100.608;2023-02-11T15:23:23;14.00;;;10.00;;
37169;SDS011;23062;13.952;100.608;2023-02-11T15:27:52;14.00;;;10.00;;
37169;SDS011;23062;13.952;100.608;2023-02-11T15:32:22;15.00;;;11.00;;
37169;SDS011;23062;13.952;100.608;2023-02-11T15:36:49;15.00;;;10.00;;
37169;SDS011;23062;13.952;100.608;2023-02-11T15:45:59;14.00;;;11.00;;
37169;SDS011;23062;13.952;100.608;2023-02-11T15:50:26;14.00;;;10.00;;
37169;SDS011;23062;13.952;100.608;2023-02-11T15:54:53;16.00;;;12.00;;
37169;SDS011;23062;13.952;100.608;2023-02-11T15:59:26;13.00;;;9.00;;
37169;SDS011;23062;13.952;100.608;2023-02-11T16:03:52;13.00;;;10.00;;
37169;SDS011;23062;13.952;100.608;2023-02-11T16:08:21;12.00;;;9.00;;
37169;SDS011;23062;13.952;100.608;2023-02-11T16:17:25;13.00;;;9.00;;
37169;SDS011;23062;13.952;100.608;2023-02-11T16:21:52;14.00;;;10.00;;
37169;SDS011;23062;13.952;100.608;2023-02-11T16:26:26;12.00;;;8.00;;
37169;SDS011;23062;13.952;100.608;2023-02-11T16:30:58;12.00;;;9.00;;
37169;SDS011;23062;13.952;100.608;2023-02-11T16:35:26;13.00;;;9.00;;
37169;SDS011;23062;13.952;100.608;2023-02-11T16:39:55;13.00;;;9.00;;
37169;SDS011;23062;13.952;100.608;2023-02-11T16:44:22;13.00;;;9.00;;
37169;SDS011;23062;13.952;100.608;2023-02-11T16:48:47;10.00;;;7.00;;
37169;SDS011;23062;13.952;100.608;2023-02-11T16:53:14;11.00;;;6.40;;
37169;SDS011;23062;13.952;100.608;2023-02-11T16:57:41;13.00;;;9.00;;
37169;SDS011;23062;13.952;100.608;2023-02-11T17:06:37;9.00;;;7.00;;
37169;SDS011;23062;13.952;100.608;2023-02-11T17:11:09;9.00;;;7.00;;
37169;SDS011;23062;13.952;100.608;2023-02-11T17:15:35;12.00;;;9.00;;
37169;SDS011;23062;13.952;100.608;2023-02-11T17:20:01;11.00;;;8.00;;
37169;SDS011;23062;13.952;100.608;2023-02-11T17:24:27;10.00;;;7.00;;
37169;SDS011;23062;13.952;100.608;2023-02-11T17:29:00;12.00;;;8.00;;
37169;SDS011;23062;13.952;100.608;2023-02-11T17:33:23;12.00;;;8.00;;
37169;SDS011;23062;13.952;100.608;2023-02-11T17:37:49;11.00;;;8.00;;
37169;SDS011;23062;13.952;100.608;2023-02-11T17:42:15;9.00;;;6.00;;
37169;SDS011;23062;13.952;100.608;2023-02-11T17:46:41;11.00;;;8.00;;
37169;SDS011;23062;13.952;100.608;2023-02-11T17:55:53;9.00;;;6.00;;
37169;SDS011;23062;13.952;100.608;2023-02-11T18:00:22;8.00;;;6.00;;
37169;SDS011;23062;13.952;100.608;2023-02-11T18:04:50;14.00;;;10.00;;
37169;SDS011;23062;13.952;100.608;2023-02-11T18:09:16;10.00;;;7.00;;
37169;SDS011;23062;13.952;100.608;2023-02-11T18:13:43;9.00;;;7.00;;
37169;SDS011;23062;13.952;100.608;2023-02-11T18:18:10;11.00;;;8.00;;
37169;SDS011;23062;13.952;100.608;2023-02-11T18:22:36;11.00;;;8.00;;
37169;SDS011;23062;13.952;100.608;2023-02-11T18:27:02;8.00;;;6.00;;
37169;SDS011;23062;13.952;100.608;2023-02-11T18:31:28;11.00;;;8.00;;
37169;SDS011;23062;13.952;100.608;2023-02-11T18:35:53;11.00;;;8.00;;
37169;SDS011;23062;13.952;100.608;2023-02-11T18:40:19;8.00;;;5.60;;
37169;SDS011;23062;13.952;100.608;2023-02-11T18:44:46;11.00;;;8.00;;
37169;SDS011;23062;13.952;100.608;2023-02-11T18:49:11;11.00;;;8.00;;
37169;SDS011;23062;13.952;100.608;2023-02-11T18:53:37;12.00;;;8.00;;
37169;SDS011;23062;13.952;100.608;2023-02-11T18:58:08;10.00;;;7.00;;
37169;SDS011;23062;13.952;100.608;2023-02-11T19:02:34;10.00;;;7.00;;
37169;SDS011;23062;13.952;100.608;2023-02-11T19:07:00;10.00;;;7.00;;
37169;SDS011;23062;13.952;100.608;2023-02-11T19:11:26;12.00;;;8.00;;
37169;SDS011;23062;13.952;100.608;2023-02-11T19:16:12;12.00;;;8.00;;
37169;SDS011;23062;13.952;100.608;2023-02-11T19:20:42;9.00;;;7.00;;
37169;SDS011;23062;13.952;100.608;2023-02-11T19:25:11;9.00;;;7.00;;
37169;SDS011;23062;13.952;100.608;2023-02-11T19:29:38;9.00;;;7.00;;
37169;SDS011;23062;13.952;100.608;2023-02-11T19:34:03;10.00;;;7.00;;
37169;SDS011;23062;13.952;100.608;2023-02-11T19:38:33;10.00;;;7.00;;
37169;SDS011;23062;13.952;100.608;2023-02-11T19:42:58;8.00;;;6.00;;
37169;SDS011;23062;13.952;100.608;2023-02-11T19:47:26;9.00;;;6.00;;
37169;SDS011;23062;13.952;100.608;2023-02-11T19:51:52;11.00;;;7.00;;
37169;SDS011;23062;13.952;100.608;2023-02-11T19:56:19;10.00;;;7.00;;
37169;SDS011;23062;13.952;100.608;2023-02-11T20:00:46;10.00;;;7.00;;
37169;SDS011;23062;13.952;100.608;2023-02-11T20:05:11;10.00;;;7.00;;
37169;SDS011;23062;13.952;100.608;2023-02-11T20:09:40;9.00;;;7.00;;
37169;SDS011;23062;13.952;100.608;2023-02-11T20:14:06;10.00;;;7.00;;
37169;SDS011;23062;13.952;100.608;2023-02-11T20:18:32;8.00;;;6.00;;
37169;SDS011;23062;13.952;100.608;2023-02-11T20:22:57;9.00;;;7.00;;
37169;SDS011;23062;13.952;100.608;2023-02-11T20:27:26;20.00;;;15.00;;
37169;SDS011;23062;13.952;100.608;2023-02-11T20:31:53;17.00;;;12.00;;
37169;SDS011;23062;13.952;100.608;2023-02-11T20:36:20;23.00;;;18.00;;
37169;SDS011;23062;13.952;100.608;2023-02-11T20:40:46;19.00;;;14.00;;
37169;SDS011;23062;13.952;100.608;2023-02-11T20:45:12;14.00;;;10.00;;
37169;SDS011;23062;13.952;100.608;2023-02-11T20:49:37;14.00;;;10.00;;
37169;SDS011;23062;13.952;100.608;2023-02-11T20:54:03;13.00;;;10.00;;
37169;SDS011;23062;13.952;100.608;2023-02-11T20:58:30;14.00;;;10.00;;
37169;SDS011;23062;13.952;100.608;2023-02-11T21:03:04;17.00;;;12.00;;
37169;SDS011;23062;13.952;100.608;2023-02-11T21:07:29;17.00;;;13.00;;
37169;SDS011;23062;13.952;100.608;2023-02-11T21:11:56;24.00;;;17.00;;
37169;SDS011;23062;13.952;100.608;2023-02-11T21:16:21;21.00;;;16.00;;
37169;SDS011;23062;13.952;100.608;2023-02-11T21:20:53;18.00;;;13.00;;
37169;SDS011;23062;13.952;100.608;2023-02-11T21:25:22;17.00;;;13.00;;
37169;SDS011;23062;13.952;100.608;2023-02-11T21:29:47;20.00;;;14.00;;
37169;SDS011;23062;13.952;100.608;2023-02-11T21:34:13;16.00;;;12.00;;
37169;SDS011;23062;13.952;100.608;2023-02-11T21:38:38;18.00;;;13.00;;
37169;SDS011;23062;13.952;100.608;2023-02-11T21:43:04;15.00;;;10.27;;
37169;SDS011;23062;13.952;100.608;2023-02-11T21:47:31;16.00;;;12.00;;
37169;SDS011;23062;13.952;100.608;2023-02-11T21:51:56;18.00;;;14.00;;
37169;SDS011;23062;13.952;100.608;2023-02-11T21:56:27;14.00;;;11.00;;
37169;SDS011;23062;13.952;100.608;2023-02-11T22:00:55;16.00;;;12.00;;
37169;SDS011;23062;13.952;100.608;2023-02-11T22:05:30;19.00;;;14.00;;
37169;SDS011;23062;13.952;100.608;2023-02-11T22:09:56;17.00;;;12.00;;
37169;SDS011;23062;13.952;100.608;2023-02-11T22:14:22;16.00;;;11.00;;
37169;SDS011;23062;13.952;100.608;2023-02-11T22:18:48;14.00;;;10.00;;
37169;SDS011;23062;13.952;100.608;2023-02-11T22:23:13;13.00;;;9.00;;
37169;SDS011;23062;13.952;100.608;2023-02-11T22:27:38;14.00;;;10.00;;
37169;SDS011;23062;13.952;100.608;2023-02-11T22:32:04;13.00;;;9.00;;
37169;SDS011;23062;13.952;100.608;2023-02-11T22:36:38;11.00;;;8.00;;
37169;SDS011;23062;13.952;100.608;2023-02-11T22:41:05;16.00;;;12.00;;
37169;SDS011;23062;13.952;100.608;2023-02-11T22:45:35;12.00;;;9.00;;
37169;SDS011;23062;13.952;100.608;2023-02-11T22:50:00;12.00;;;8.00;;
37169;SDS011;23062;13.952;100.608;2023-02-11T22:54:26;16.00;;;11.00;;
37169;SDS011;23062;13.952;100.608;2023-02-11T22:58:58;14.00;;;10.00;;
37169;SDS011;23062;13.952;100.608;2023-02-11T23:03:26;13.00;;;10.00;;
37169;SDS011;23062;13.952;100.608;2023-02-11T23:07:53;16.00;;;11.00;;
37169;SDS011;23062;13.952;100.608;2023-02-11T23:12:19;13.00;;;9.00;;
37169;SDS011;23062;13.952;100.608;2023-02-11T23:16:48;15.00;;;11.00;;
37169;SDS011;23062;13.952;100.608;2023-02-11T23:21:16;14.00;;;10.00;;
37169;SDS011;23062;13.952;100.608;2023-02-11T23:25:42;13.00;;;10.00;;
37169;SDS011;23062;13.952;100.608;2023-02-11T23:30:08;12.00;;;9.00;;
37169;SDS011;23062;13.952;100.608;2023-02-11T23:34:34;14.00;;;10.00;;
37169;SDS011;23062;13.952;100.608;2023-02-11T23:38:59;17.00;;;12.00;;
37169;SDS011;23062;13.952;100.608;2023-02-11T23:43:25;15.00;;;11.00;;
37169;SDS011;23062;13.952;100.608;2023-02-11T23:47:51;14.00;;;11.00;;
37169;SDS011;23062;13.952;100.608;2023-02-11T23:52:17;15.00;;;10.00;;
37169;SDS011;23062;13.952;100.608;2023-02-11T23:56:42;14.00;;;10.00;;
